createdAt,value
2022-10-24T00:01:56.482Z,3.87
2022-10-24T00:04:26.566Z,4.20
2022-10-24T00:06:55.179Z,4.30
2022-10-24T00:09:23.781Z,4.80
2022-10-24T00:11:52.482Z,4.13
2022-10-24T00:14:21.528Z,4.37
2022-10-24T00:16:50.189Z,4.00
2022-10-24T00:19:18.929Z,4.43
2022-10-24T00:21:49.175Z,3.50
2022-10-24T00:24:18.414Z,4.07
2022-10-24T00:26:47.026Z,3.97
2022-10-24T00:29:15.639Z,3.90
2022-10-24T00:31:44.470Z,3.53
2022-10-24T00:34:13.203Z,3.83
2022-10-24T00:36:41.926Z,4.27
2022-10-24T00:39:13.126Z,3.77
2022-10-24T00:41:44.000Z,3.67
2022-10-24T00:44:21.850Z,3.47
2022-10-24T00:46:54.127Z,4.00
2022-10-24T00:49:25.795Z,3.70
2022-10-24T00:51:58.882Z,3.10
2022-10-24T00:54:29.067Z,3.33
2022-10-24T00:57:05.600Z,4.03
2022-10-24T00:59:36.658Z,5.87
2022-10-24T01:02:05.759Z,3.23
2022-10-24T01:04:34.487Z,3.73
2022-10-24T01:07:20.457Z,3.60
2022-10-24T01:10:12.974Z,3.50
2022-10-24T01:12:53.586Z,3.47
2022-10-24T01:15:29.712Z,3.83
2022-10-24T01:18:03.876Z,3.50
2022-10-24T01:20:58.487Z,3.77
2022-10-24T01:24:01.760Z,3.40
2022-10-24T01:27:03.017Z,3.50
2022-10-24T01:29:58.207Z,3.57
2022-10-24T01:32:35.929Z,4.17
2022-10-24T01:35:12.404Z,3.10
2022-10-24T01:37:46.809Z,3.60
2022-10-24T01:40:21.702Z,3.77
2022-10-24T01:42:52.164Z,3.63
2022-10-24T01:45:27.177Z,3.30
2022-10-24T01:47:57.838Z,4.07
2022-10-24T01:50:28.973Z,3.33
2022-10-24T01:52:59.127Z,3.37
2022-10-24T01:55:28.207Z,3.50
2022-10-24T01:57:56.853Z,3.10
2022-10-24T02:00:27.497Z,3.03
2022-10-24T02:03:00.347Z,3.37
2022-10-24T02:05:33.901Z,3.47
2022-10-24T02:08:06.875Z,3.67
2022-10-24T02:10:39.827Z,3.43
2022-10-24T02:13:15.862Z,3.70
2022-10-24T02:15:50.288Z,3.30
2022-10-24T02:18:19.491Z,3.67
2022-10-24T02:20:55.086Z,3.10
2022-10-24T02:23:29.749Z,3.47
2022-10-24T02:26:02.633Z,3.50
2022-10-24T02:28:38.869Z,3.57
2022-10-24T02:31:13.646Z,3.67
2022-10-24T02:33:43.978Z,3.10
2022-10-24T02:36:15.389Z,3.23
2022-10-24T02:38:47.267Z,3.20
2022-10-24T02:41:21.565Z,3.43
2022-10-24T02:43:52.370Z,3.57
2022-10-24T02:46:23.254Z,4.20
2022-10-24T02:48:54.891Z,4.20
2022-10-24T02:51:26.559Z,3.83
2022-10-24T02:53:56.313Z,3.50
2022-10-24T02:56:24.962Z,3.70
2022-10-24T02:58:53.622Z,3.83
2022-10-24T03:01:23.820Z,3.73
2022-10-24T03:03:52.518Z,3.77
2022-10-24T03:06:21.193Z,3.20
2022-10-24T03:08:49.923Z,3.60
2022-10-24T03:11:18.875Z,3.33
2022-10-24T03:13:47.578Z,3.10
2022-10-24T03:16:16.253Z,2.90
2022-10-24T03:18:46.266Z,3.30
2022-10-24T03:21:14.930Z,3.53
2022-10-24T03:23:43.715Z,3.40
2022-10-24T03:26:12.327Z,3.23
2022-10-24T03:28:41.026Z,3.40
2022-10-24T03:31:10.024Z,2.90
2022-10-24T03:33:38.771Z,3.17
2022-10-24T03:36:09.533Z,3.50
2022-10-24T03:38:38.303Z,3.50
2022-10-24T03:41:07.165Z,3.20
2022-10-24T03:43:35.866Z,3.50
2022-10-24T03:46:04.494Z,3.50
2022-10-24T03:48:33.453Z,3.67
2022-10-24T03:51:02.089Z,3.23
2022-10-24T03:53:33.020Z,3.30
2022-10-24T03:56:01.676Z,3.50
2022-10-24T03:58:30.330Z,3.47
2022-10-24T04:00:59.591Z,4.17
2022-10-24T04:03:28.870Z,3.07
2022-10-24T04:05:57.585Z,3.00
2022-10-24T04:08:26.197Z,3.57
2022-10-24T04:10:56.360Z,2.80
2022-10-24T04:13:25.098Z,3.23
2022-10-24T04:15:53.891Z,3.10
2022-10-24T04:18:22.620Z,3.23
2022-10-24T04:20:51.292Z,3.30
2022-10-24T04:23:19.974Z,3.20
2022-10-24T04:25:48.610Z,2.87
2022-10-24T04:28:18.727Z,3.40
2022-10-24T04:30:47.369Z,3.13
2022-10-24T04:33:16.002Z,3.43
2022-10-24T04:35:49.404Z,3.70
2022-10-24T04:38:18.508Z,3.30
2022-10-24T04:40:48.521Z,3.73
2022-10-24T04:43:18.674Z,3.80
2022-10-24T04:45:47.725Z,3.27
2022-10-24T04:48:17.135Z,3.10
2022-10-24T04:50:46.733Z,3.17
2022-10-24T04:53:15.801Z,3.03
2022-10-24T04:55:44.451Z,3.73
2022-10-24T04:58:13.203Z,3.57
2022-10-24T05:00:46.713Z,3.43
2022-10-24T05:03:16.401Z,3.43
2022-10-24T05:05:45.395Z,3.90
2022-10-24T05:08:14.328Z,3.50
2022-10-24T05:10:43.274Z,3.50
2022-10-24T05:13:12.743Z,3.43
2022-10-24T05:15:42.809Z,3.40
2022-10-24T05:18:11.511Z,3.60
2022-10-24T05:23:10.037Z,3.83
2022-10-24T05:25:38.715Z,3.90
2022-10-24T05:28:07.415Z,3.87
2022-10-24T05:30:36.093Z,3.30
2022-10-24T05:33:06.258Z,4.10
2022-10-24T05:35:34.938Z,3.80
2022-10-24T05:38:03.591Z,3.80
2022-10-24T05:40:32.452Z,4.93
2022-10-24T05:43:01.139Z,5.60
2022-10-24T05:45:29.809Z,4.27
2022-10-24T05:47:58.467Z,4.40
2022-10-24T05:50:30.180Z,4.10
2022-10-24T05:52:59.102Z,4.60
2022-10-24T05:55:27.997Z,4.10
2022-10-24T05:57:56.670Z,4.60
2022-10-24T06:00:25.268Z,3.73
2022-10-24T06:02:54.244Z,4.13
2022-10-24T06:05:22.942Z,4.23
2022-10-24T06:07:53.119Z,4.60
2022-10-24T06:10:21.891Z,5.10
2022-10-24T06:12:50.548Z,4.93
2022-10-24T06:15:19.235Z,4.77
2022-10-24T06:17:47.871Z,5.17
2022-10-24T06:20:16.554Z,3.77
2022-10-24T06:22:46.731Z,7.10
2022-10-24T06:25:17.753Z,5.07
2022-10-24T06:27:49.878Z,4.33
2022-10-24T06:30:19.249Z,5.90
2022-10-24T06:32:48.058Z,7.87
2022-10-24T06:35:16.865Z,4.77
2022-10-24T06:37:47.981Z,6.63
2022-10-24T06:40:18.890Z,5.53
2022-10-24T06:42:48.272Z,4.77
2022-10-24T06:45:18.504Z,5.40
2022-10-24T06:47:50.693Z,4.30
2022-10-24T06:50:22.936Z,4.30
2022-10-24T06:52:51.695Z,4.67
2022-10-24T06:55:21.881Z,4.57
2022-10-24T06:57:50.496Z,4.97
2022-10-24T07:00:19.454Z,4.70
2022-10-24T07:02:48.236Z,5.13
2022-10-24T07:05:17.149Z,3.90
2022-10-24T07:07:45.981Z,5.07
2022-10-24T07:10:16.606Z,5.30
2022-10-24T07:12:47.065Z,4.93
2022-10-24T07:15:15.999Z,5.20
2022-10-24T07:17:46.246Z,4.60
2022-10-24T07:20:15.797Z,4.83
2022-10-24T07:22:45.764Z,4.63
2022-10-24T07:25:14.893Z,4.97
2022-10-24T07:27:43.616Z,4.60
2022-10-24T07:30:18.812Z,4.73
2022-10-24T07:32:48.781Z,4.03
2022-10-24T07:35:17.561Z,4.60
2022-10-24T07:37:46.421Z,4.23
2022-10-24T07:40:15.481Z,4.43
2022-10-24T07:42:44.134Z,4.27
2022-10-24T07:45:13.397Z,4.27
2022-10-24T07:47:43.820Z,7.63
2022-10-24T07:50:12.621Z,5.37
2022-10-24T07:52:41.250Z,5.73
2022-10-24T07:55:10.618Z,6.87
2022-10-24T07:57:39.311Z,4.87
2022-10-24T08:00:09.414Z,5.77
2022-10-24T08:02:45.594Z,5.57
2022-10-24T08:05:17.048Z,5.83
2022-10-24T08:07:56.100Z,5.13
2022-10-24T08:10:34.318Z,5.00
2022-10-24T08:13:03.042Z,5.17
2022-10-24T08:15:31.726Z,5.10
2022-10-24T08:18:01.771Z,5.17
2022-10-24T08:20:30.823Z,5.47
2022-10-24T08:22:59.469Z,5.83
2022-10-24T08:25:28.162Z,6.53
2022-10-24T08:27:57.059Z,4.87
2022-10-24T08:30:25.802Z,4.63
2022-10-24T08:32:54.859Z,5.50
2022-10-24T08:35:25.958Z,5.83
2022-10-24T08:37:54.695Z,5.40
2022-10-24T08:40:23.333Z,5.53
2022-10-24T08:42:52.139Z,5.57
2022-10-24T08:45:28.717Z,5.37
2022-10-24T08:48:03.175Z,6.37
2022-10-24T08:50:35.630Z,5.27
2022-10-24T08:53:07.721Z,6.40
2022-10-24T08:55:49.456Z,5.97
2022-10-24T08:58:22.989Z,5.90
2022-10-24T09:00:54.233Z,6.63
2022-10-24T09:03:54.546Z,6.23
2022-10-24T09:06:23.406Z,6.90
2022-10-24T09:08:54.273Z,6.70
2022-10-24T09:11:29.985Z,6.30
2022-10-24T09:13:59.441Z,6.13
2022-10-24T09:16:28.442Z,6.87
2022-10-24T09:18:59.048Z,9.47
2022-10-24T09:21:29.459Z,8.47
2022-10-24T09:23:58.536Z,10.30
2022-10-24T09:26:32.237Z,13.17
2022-10-24T09:29:01.195Z,12.53
2022-10-24T09:31:29.893Z,13.17
2022-10-24T09:34:00.593Z,12.30
2022-10-24T09:36:32.100Z,11.57
2022-10-24T09:39:25.175Z,12.30
2022-10-24T09:41:54.213Z,11.57
2022-10-24T09:44:43.987Z,10.80
2022-10-24T09:47:28.722Z,10.73
2022-10-24T09:49:57.622Z,11.50
2022-10-24T09:52:32.160Z,9.33
2022-10-24T09:55:17.598Z,9.67
2022-10-24T09:57:46.676Z,8.20
2022-10-24T10:00:27.440Z,6.00
2022-10-24T10:03:02.296Z,6.40
2022-10-24T10:05:43.972Z,6.73
2022-10-24T10:08:19.973Z,6.90
2022-10-24T10:11:02.564Z,9.37
2022-10-24T10:13:37.735Z,6.63
2022-10-24T10:16:09.303Z,8.60
2022-10-24T10:18:47.023Z,7.63
2022-10-24T10:21:17.831Z,6.50
2022-10-24T10:23:49.168Z,6.97
2022-10-24T10:26:27.525Z,7.03
2022-10-24T10:29:02.230Z,7.60
2022-10-24T10:31:40.855Z,6.90
2022-10-24T10:34:21.194Z,6.73
2022-10-24T10:37:24.767Z,7.23
2022-10-24T10:40:21.608Z,6.93
2022-10-24T10:43:03.696Z,7.07
2022-10-24T10:45:37.622Z,6.67
2022-10-24T10:48:22.216Z,6.33
2022-10-24T10:50:56.327Z,7.60
2022-10-24T10:53:36.519Z,7.47
2022-10-24T10:56:16.063Z,9.30
2022-10-24T10:58:52.926Z,6.33
2022-10-24T11:01:29.200Z,7.13
2022-10-24T11:04:08.100Z,6.87
2022-10-24T11:06:46.892Z,6.43
2022-10-24T11:09:37.308Z,7.60
2022-10-24T11:12:17.467Z,7.07
2022-10-24T11:14:51.575Z,7.60
2022-10-24T11:17:25.303Z,8.07
2022-10-24T11:20:05.374Z,7.63
2022-10-24T11:22:41.968Z,9.07
2022-10-24T11:25:22.251Z,8.43
2022-10-24T11:27:59.382Z,8.40
2022-10-24T11:30:43.709Z,8.82
2022-10-24T11:33:21.685Z,8.73
2022-10-24T11:36:07.723Z,6.93
2022-10-24T11:38:42.218Z,7.30
2022-10-24T11:41:47.895Z,7.30
2022-10-24T11:44:36.289Z,6.70
2022-10-24T11:47:22.196Z,6.70
2022-10-24T11:49:57.610Z,6.70
2022-10-24T11:52:30.375Z,7.40
2022-10-24T11:55:05.498Z,7.55
2022-10-24T11:57:36.924Z,7.35
2022-10-24T12:00:08.190Z,7.72
2022-10-24T12:03:12.617Z,8.32
2022-10-24T12:05:59.594Z,7.32
2022-10-24T12:08:44.713Z,7.72
2022-10-24T12:11:33.694Z,7.45
2022-10-24T12:14:42.273Z,6.53
2022-10-24T12:17:29.788Z,7.32
2022-10-24T12:20:01.654Z,6.60
2022-10-24T12:22:42.435Z,6.65
2022-10-24T12:25:22.699Z,5.95
2022-10-24T12:27:57.310Z,6.63
2022-10-24T12:30:28.033Z,6.43
2022-10-24T12:33:09.758Z,5.80
2022-10-24T12:36:00.304Z,6.38
2022-10-24T12:39:09.356Z,5.95
2022-10-24T12:41:45.258Z,5.40
2022-10-24T12:44:42.486Z,5.68
2022-10-24T12:47:45.086Z,5.63
2022-10-24T12:50:50.384Z,5.15
2022-10-24T12:53:33.642Z,5.38
2022-10-24T12:59:01.292Z,6.95
2022-10-24T13:01:34.652Z,5.82
2022-10-24T13:07:48.333Z,5.35
2022-10-24T13:10:54.934Z,6.10
2022-10-24T13:13:40.284Z,5.50
2022-10-24T13:16:20.887Z,5.57
2022-10-24T13:19:04.317Z,6.65
2022-10-24T13:21:37.534Z,5.75
2022-10-24T13:24:25.705Z,6.97
2022-10-24T13:27:27.738Z,7.32
2022-10-24T13:30:22.041Z,7.15
2022-10-24T13:32:50.918Z,7.93
2022-10-24T13:35:25.795Z,8.02
2022-10-24T13:38:01.319Z,8.23
2022-10-24T13:40:34.482Z,9.63
2022-10-24T13:43:07.908Z,8.60
2022-10-24T13:45:48.525Z,9.50
2022-10-24T13:48:20.141Z,7.63
2022-10-24T13:50:53.028Z,7.93
2022-10-24T13:53:30.660Z,7.40
2022-10-24T13:56:04.023Z,9.33
2022-10-24T13:58:44.179Z,7.93
2022-10-24T14:01:19.387Z,9.30
2022-10-24T14:03:49.426Z,8.70
2022-10-24T14:06:24.484Z,8.20
2022-10-24T14:09:04.251Z,8.67
2022-10-24T14:11:36.574Z,7.93
2022-10-24T14:14:24.933Z,8.60
2022-10-24T14:17:09.091Z,7.97
2022-10-24T14:19:44.409Z,8.13
2022-10-24T14:22:21.510Z,9.00
2022-10-24T14:24:50.518Z,8.27
2022-10-24T14:27:21.357Z,8.67
2022-10-24T14:29:58.408Z,8.07
2022-10-24T14:32:29.164Z,8.07
2022-10-24T14:37:37.954Z,8.70
2022-10-24T14:40:08.135Z,8.37
2022-10-24T14:42:36.994Z,8.73
2022-10-24T14:45:08.654Z,9.03
2022-10-24T14:47:39.831Z,9.47
2022-10-24T14:50:36.804Z,8.80
2022-10-24T14:53:06.015Z,9.57
2022-10-24T14:55:35.070Z,8.87
2022-10-24T14:58:03.851Z,8.70
2022-10-24T15:00:41.661Z,9.33
2022-10-24T15:03:12.082Z,9.53
2022-10-24T15:05:41.522Z,8.73
2022-10-24T15:08:31.696Z,10.50
2022-10-24T15:11:16.862Z,10.33
2022-10-24T15:14:00.022Z,9.93
2022-10-24T15:16:39.530Z,10.63
2022-10-24T15:19:18.011Z,10.77
2022-10-24T15:21:47.884Z,11.10
2022-10-24T15:24:23.596Z,10.60
2022-10-24T15:26:53.541Z,13.33
2022-10-24T15:29:24.729Z,11.70
2022-10-24T15:31:54.937Z,12.10
2022-10-24T15:34:27.371Z,11.77
2022-10-24T15:36:57.560Z,10.90
2022-10-24T15:39:27.468Z,10.17
2022-10-24T15:41:56.495Z,9.40
2022-10-24T15:44:28.058Z,9.67
2022-10-24T15:46:58.297Z,9.97
2022-10-24T15:49:28.305Z,10.10
2022-10-24T15:51:58.905Z,12.20
2022-10-24T15:54:28.037Z,15.37
2022-10-24T15:56:59.464Z,15.17
2022-10-24T15:59:30.351Z,10.43
2022-10-24T16:02:03.305Z,10.80
2022-10-24T16:04:33.496Z,32.10
2022-10-24T16:07:02.838Z,10.23
2022-10-24T16:09:31.823Z,10.73
2022-10-24T16:12:00.536Z,10.20
2022-10-24T16:14:30.584Z,10.07
2022-10-24T16:17:01.327Z,10.87
2022-10-24T16:19:30.128Z,10.73
2022-10-24T16:22:00.831Z,11.17
2022-10-24T16:24:30.750Z,10.73
2022-10-24T16:26:59.479Z,10.90
2022-10-24T16:29:28.364Z,10.83
2022-10-24T16:31:57.066Z,12.03
2022-10-24T16:34:28.057Z,12.63
2022-10-24T16:36:56.902Z,13.87
2022-10-24T16:39:25.668Z,14.97
2022-10-24T16:41:56.102Z,13.97
2022-10-24T16:44:24.973Z,14.03
2022-10-24T16:46:55.372Z,13.43
2022-10-24T16:49:24.678Z,13.47
2022-10-24T16:51:54.814Z,13.10
2022-10-24T16:54:23.658Z,15.40
2022-10-24T16:56:53.976Z,14.80
2022-10-24T16:59:23.097Z,16.93
2022-10-24T17:01:52.256Z,15.03
2022-10-24T17:04:21.071Z,17.00
2022-10-24T17:06:50.202Z,18.23
2022-10-24T17:09:20.333Z,16.17
2022-10-24T17:11:49.039Z,14.97
2022-10-24T17:14:17.791Z,16.07
2022-10-24T17:16:46.515Z,15.57
2022-10-24T17:19:16.947Z,15.83
2022-10-24T17:21:48.235Z,16.23
2022-10-24T17:24:21.137Z,15.37
2022-10-24T17:26:51.530Z,15.10
2022-10-24T17:29:25.829Z,15.77
2022-10-24T17:31:55.253Z,15.17
2022-10-24T17:34:24.320Z,15.33
2022-10-24T17:37:00.554Z,17.07
2022-10-24T17:39:44.812Z,16.70
2022-10-24T17:42:16.376Z,14.27
2022-10-24T17:44:45.820Z,13.70
2022-10-24T17:47:16.902Z,14.37
2022-10-24T17:49:45.874Z,16.20
2022-10-24T17:52:17.855Z,15.73
2022-10-24T17:54:48.040Z,15.17
2022-10-24T17:57:16.831Z,13.80
2022-10-24T17:59:45.552Z,13.23
2022-10-24T18:02:14.991Z,19.37
2022-10-24T18:04:45.035Z,14.43
2022-10-24T18:07:14.190Z,14.87
2022-10-24T18:09:43.000Z,14.77
2022-10-24T18:12:13.086Z,14.67
2022-10-24T18:14:41.792Z,13.80
2022-10-24T18:17:10.536Z,12.67
2022-10-24T18:19:39.353Z,12.67
2022-10-24T18:22:09.099Z,12.57
2022-10-24T18:24:38.466Z,11.63
2022-10-24T18:27:07.166Z,13.70
2022-10-24T18:29:37.385Z,9.87
2022-10-24T18:32:06.499Z,9.80
2022-10-24T18:34:35.368Z,12.07
2022-10-24T18:37:04.082Z,12.07
2022-10-24T18:39:32.892Z,9.87
2022-10-24T18:42:05.465Z,9.07
2022-10-24T18:44:37.987Z,9.20
2022-10-24T18:47:08.816Z,8.20
2022-10-24T18:49:38.553Z,8.10
2022-10-24T18:52:17.553Z,8.83
2022-10-24T18:54:58.654Z,8.40
2022-10-24T18:57:32.206Z,9.40
2022-10-24T19:00:02.783Z,9.20
2022-10-24T19:02:37.216Z,8.80
2022-10-24T19:05:16.069Z,8.07
2022-10-24T19:07:46.057Z,10.07
2022-10-24T19:10:21.006Z,8.20
2022-10-24T19:12:50.175Z,8.00
2022-10-24T19:15:21.391Z,7.07
2022-10-24T19:17:51.427Z,6.90
2022-10-24T19:20:22.367Z,7.80
2022-10-24T19:22:51.791Z,13.93
2022-10-24T19:25:20.556Z,12.23
2022-10-24T19:27:50.158Z,12.03
2022-10-24T19:30:20.486Z,11.07
2022-10-24T19:32:49.316Z,12.20
2022-10-24T19:35:18.970Z,10.13
2022-10-24T19:37:48.029Z,8.23
2022-10-24T19:40:17.282Z,9.27
2022-10-24T19:42:45.974Z,8.70
2022-10-24T19:45:14.680Z,9.87
2022-10-24T19:47:46.972Z,8.23
2022-10-24T19:50:16.890Z,8.20
2022-10-24T19:52:45.563Z,9.37
2022-10-24T19:55:14.318Z,9.07
2022-10-24T19:57:43.062Z,7.70
2022-10-24T20:00:13.054Z,6.43
2022-10-24T20:02:42.011Z,7.17
2022-10-24T20:05:13.185Z,6.80
2022-10-24T20:07:41.915Z,9.33
2022-10-24T20:10:11.033Z,9.03
2022-10-24T20:12:39.842Z,8.17
2022-10-24T20:15:10.038Z,10.93
2022-10-24T20:17:38.800Z,10.20
2022-10-24T20:20:09.610Z,11.23
2022-10-24T20:22:39.933Z,9.33
2022-10-24T20:25:09.423Z,8.23
2022-10-24T20:27:39.785Z,9.03
2022-10-24T20:30:09.756Z,9.83
2022-10-24T20:32:38.496Z,10.47
2022-10-24T20:35:08.027Z,11.40
2022-10-24T20:37:36.770Z,10.10
2022-10-24T20:40:07.961Z,26.30
2022-10-24T20:42:36.744Z,11.97
2022-10-24T20:45:06.073Z,11.13
2022-10-24T20:47:36.822Z,8.97
2022-10-24T20:50:06.069Z,13.07
2022-10-24T20:52:35.092Z,9.17
2022-10-24T20:55:11.071Z,8.17
2022-10-24T20:57:51.798Z,8.50
2022-10-24T21:00:21.028Z,8.77
2022-10-24T21:02:52.434Z,8.70
2022-10-24T21:05:22.075Z,17.13
2022-10-24T21:07:51.404Z,15.03
2022-10-24T21:10:20.294Z,10.03
2022-10-24T21:12:50.781Z,9.60
2022-10-24T21:15:19.817Z,9.43
2022-10-24T21:17:48.755Z,9.50
2022-10-24T21:20:17.723Z,8.43
2022-10-24T21:22:46.419Z,7.23
2022-10-24T21:25:15.205Z,6.63
2022-10-24T21:27:44.039Z,7.60
2022-10-24T21:30:15.078Z,9.50
2022-10-24T21:32:43.892Z,8.70
2022-10-24T21:35:12.582Z,7.07
2022-10-24T21:37:41.242Z,7.17
2022-10-24T21:40:10.828Z,10.30
2022-10-24T21:42:39.581Z,8.30
2022-10-24T21:45:08.825Z,8.57
2022-10-24T21:47:39.066Z,6.87
2022-10-24T21:50:08.116Z,6.93
2022-10-24T21:52:36.783Z,7.37
2022-10-24T21:55:05.966Z,6.90
2022-10-24T21:57:34.662Z,7.70
2022-10-24T22:00:03.410Z,7.03
2022-10-24T22:02:33.899Z,8.90
2022-10-24T22:05:04.236Z,7.30
2022-10-24T22:07:33.013Z,7.17
2022-10-24T22:10:01.697Z,7.50
2022-10-24T22:12:30.426Z,6.73
2022-10-24T22:14:59.117Z,7.07
2022-10-24T22:17:27.819Z,6.77
2022-10-24T22:19:56.499Z,7.43
2022-10-24T22:22:26.666Z,7.23
2022-10-24T22:24:55.450Z,7.20
2022-10-24T22:27:24.134Z,6.60
2022-10-24T22:29:52.823Z,5.63
2022-10-24T22:32:21.983Z,5.50
2022-10-24T22:34:51.210Z,6.50
2022-10-24T22:37:29.241Z,5.67
2022-10-24T22:39:59.810Z,5.63
2022-10-24T22:42:28.816Z,5.93
2022-10-24T22:44:57.992Z,7.10
2022-10-24T22:47:48.806Z,5.73
2022-10-24T22:50:36.869Z,6.67
2022-10-24T22:53:12.601Z,5.17
2022-10-24T22:55:50.926Z,7.57
2022-10-24T22:58:20.275Z,6.37
2022-10-24T23:00:52.350Z,7.33
2022-10-24T23:03:32.046Z,5.97
2022-10-24T23:06:04.443Z,7.30
2022-10-24T23:08:39.946Z,6.40
2022-10-24T23:11:10.879Z,6.50
2022-10-24T23:13:40.284Z,6.00
2022-10-24T23:16:18.922Z,6.53
2022-10-24T23:18:48.121Z,8.00
2022-10-24T23:21:26.659Z,5.90
2022-10-24T23:23:57.517Z,6.23
2022-10-24T23:26:35.123Z,6.97
2022-10-24T23:29:10.467Z,6.83
2022-10-24T23:31:39.764Z,4.70
2022-10-24T23:34:10.815Z,5.90
2022-10-24T23:36:44.390Z,5.40
2022-10-24T23:39:15.256Z,6.20
2022-10-24T23:41:46.085Z,6.60
2022-10-24T23:44:15.242Z,5.20
2022-10-24T23:46:47.992Z,6.17
2022-10-24T23:49:30.379Z,5.07
2022-10-24T23:52:13.318Z,5.17
2022-10-24T23:54:44.321Z,5.20
2022-10-24T23:57:17.411Z,5.60
2022-10-24T23:59:47.313Z,5.60
